createdAt,value
2022-11-20T00:00:17.954Z,97947.38
2022-11-20T00:02:44.298Z,97937.09
2022-11-20T00:05:10.777Z,97936.31
2022-11-20T00:07:37.132Z,97943.09
2022-11-20T00:10:03.771Z,97933.47
2022-11-20T00:12:30.135Z,97941.44
2022-11-20T00:14:56.524Z,97934.00
2022-11-20T00:17:22.914Z,97937.53
2022-11-20T00:19:49.313Z,97938.00
2022-11-20T00:22:15.674Z,97944.44
2022-11-20T00:24:43.306Z,97941.97
2022-11-20T00:27:09.863Z,97942.19
2022-11-20T00:29:36.230Z,97940.41
2022-11-20T00:32:02.652Z,97940.09
2022-11-20T00:34:29.036Z,97943.41
2022-11-20T00:36:55.415Z,97945.50
2022-11-20T00:39:22.094Z,97934.84
2022-11-20T00:41:48.746Z,97938.44
2022-11-20T00:44:15.137Z,97942.88
2022-11-20T00:46:41.596Z,97952.25
2022-11-20T00:49:07.981Z,97951.00
2022-11-20T00:51:34.375Z,97948.59
2022-11-20T00:54:01.065Z,97947.03
2022-11-20T00:56:27.682Z,97948.94
2022-11-20T00:58:54.116Z,97956.16
2022-11-20T01:01:25.816Z,97955.22
2022-11-20T01:03:54.808Z,97953.59
2022-11-20T01:06:33.099Z,97955.34
2022-11-20T01:09:01.479Z,97956.94
2022-11-20T01:11:33.593Z,97959.84
2022-11-20T01:14:01.854Z,97958.28
2022-11-20T01:16:31.725Z,97959.09
2022-11-20T01:19:01.225Z,97960.91
2022-11-20T01:21:30.727Z,97956.16
2022-11-20T01:23:57.987Z,97961.66
2022-11-20T01:26:26.800Z,97960.91
2022-11-20T01:28:53.944Z,97948.78
2022-11-20T01:31:26.182Z,97957.44
2022-11-20T01:33:54.771Z,97955.22
2022-11-20T01:36:23.131Z,97955.44
2022-11-20T01:38:53.406Z,97948.75
2022-11-20T01:41:38.420Z,97951.38
2022-11-20T01:44:05.692Z,97939.59
2022-11-20T01:46:39.232Z,97933.06
2022-11-20T01:49:16.424Z,97932.47
2022-11-20T01:51:48.929Z,97933.22
2022-11-20T01:54:22.978Z,97934.50
2022-11-20T01:56:54.852Z,97938.00
2022-11-20T01:59:23.836Z,97927.34
2022-11-20T02:01:50.531Z,97927.97
2022-11-20T02:04:17.600Z,97922.34
2022-11-20T02:06:50.616Z,97922.41
2022-11-20T02:09:17.597Z,97922.72
2022-11-20T02:11:44.022Z,97923.44
2022-11-20T02:14:11.114Z,97930.91
2022-11-20T02:16:46.540Z,97924.22
2022-11-20T02:19:30.625Z,97929.19
2022-11-20T02:22:09.659Z,97924.06
2022-11-20T02:24:36.085Z,97926.31
2022-11-20T02:27:08.877Z,97928.56
2022-11-20T02:29:40.744Z,97926.31
2022-11-20T02:32:07.369Z,97909.88
2022-11-20T02:34:33.740Z,97914.03
2022-11-20T02:37:00.709Z,97915.53
2022-11-20T02:39:29.188Z,97915.25
2022-11-20T02:41:56.933Z,97915.09
2022-11-20T02:44:23.338Z,97917.84
2022-11-20T02:46:49.782Z,97924.78
2022-11-20T02:49:17.453Z,97921.94
2022-11-20T02:51:43.871Z,97929.78
2022-11-20T02:54:10.339Z,97929.47
2022-11-20T02:56:40.355Z,97924.53
2022-11-20T02:59:06.933Z,97924.25
2022-11-20T03:01:33.433Z,97917.69
2022-11-20T03:04:00.016Z,97920.81
2022-11-20T03:06:26.453Z,97913.31
2022-11-20T03:08:52.908Z,97917.19
2022-11-20T03:11:19.401Z,97914.81
2022-11-20T03:13:45.924Z,97911.19
2022-11-20T03:16:20.767Z,97907.97
2022-11-20T03:18:47.723Z,97904.53
2022-11-20T03:21:15.717Z,97901.81
2022-11-20T03:23:42.445Z,97907.75
2022-11-20T03:26:30.485Z,97904.59
2022-11-20T03:29:01.875Z,97896.94
2022-11-20T03:31:34.087Z,97897.06
2022-11-20T03:34:01.445Z,97891.44
2022-11-20T03:36:28.911Z,97904.16
2022-11-20T03:38:56.870Z,97900.56
2022-11-20T03:41:26.134Z,97894.34
2022-11-20T03:43:55.317Z,97893.59
2022-11-20T03:46:22.746Z,97889.25
2022-11-20T03:48:51.888Z,97894.47
2022-11-20T03:51:23.349Z,97894.09
2022-11-20T03:53:51.451Z,97898.81
2022-11-20T03:56:19.768Z,97896.72
2022-11-20T03:58:46.144Z,97894.56
2022-11-20T04:01:18.704Z,97891.03
2022-11-20T04:03:46.110Z,97896.91
2022-11-20T04:06:21.274Z,97897.69
2022-11-20T04:08:53.347Z,97885.50
2022-11-20T04:11:25.389Z,97886.69
2022-11-20T04:14:03.252Z,97887.28
2022-11-20T04:16:31.460Z,97884.34
2022-11-20T04:19:00.217Z,97893.81
2022-11-20T04:21:27.595Z,97883.94
2022-11-20T04:23:54.559Z,97882.41
2022-11-20T04:26:23.000Z,97878.97
2022-11-20T04:28:49.373Z,97877.03
2022-11-20T04:31:18.300Z,97876.78
2022-11-20T04:33:45.021Z,97871.75
2022-11-20T04:36:16.102Z,97879.31
2022-11-20T04:38:44.610Z,97863.19
2022-11-20T04:41:16.511Z,97870.16
2022-11-20T04:43:46.917Z,97870.47
2022-11-20T04:46:13.301Z,97870.47
2022-11-20T04:48:39.784Z,97865.81
2022-11-20T04:51:06.962Z,97860.63
2022-11-20T04:53:33.705Z,97868.06
2022-11-20T04:56:05.743Z,97871.97
2022-11-20T04:58:32.427Z,97867.03
2022-11-20T05:01:07.074Z,97863.34
2022-11-20T05:03:35.534Z,97869.09
2022-11-20T05:06:06.999Z,97872.03
2022-11-20T05:08:34.153Z,97869.56
2022-11-20T05:11:20.962Z,97877.50
2022-11-20T05:13:47.687Z,97877.50
2022-11-20T05:16:16.943Z,97874.78
2022-11-20T05:18:44.133Z,97876.75
2022-11-20T05:21:12.180Z,97873.78
2022-11-20T05:23:39.326Z,97874.53
2022-11-20T05:26:07.845Z,97877.00
2022-11-20T05:28:35.182Z,97875.41
2022-11-20T05:31:09.726Z,97880.22
2022-11-20T05:33:36.918Z,97872.75
2022-11-20T05:36:06.703Z,97869.53
2022-11-20T05:38:33.493Z,97868.53
2022-11-20T05:41:11.259Z,97861.34
2022-11-20T05:43:40.100Z,97869.44
2022-11-20T05:46:08.021Z,97856.63
2022-11-20T05:48:35.870Z,97862.09
2022-11-20T05:51:04.528Z,97859.75
2022-11-20T05:53:32.814Z,97855.91
2022-11-20T05:56:05.125Z,97856.22
2022-11-20T05:58:32.462Z,97854.81
2022-11-20T06:01:28.267Z,97847.59
2022-11-20T06:03:55.174Z,97855.25
2022-11-20T06:06:22.500Z,97853.78
2022-11-20T06:08:49.801Z,97836.69
2022-11-20T06:11:16.991Z,97848.28
2022-11-20T06:13:44.452Z,97838.56
2022-11-20T06:16:12.069Z,97839.88
2022-11-20T06:18:38.354Z,97842.41
2022-11-20T06:21:11.772Z,97845.13
2022-11-20T06:23:38.486Z,97847.97
2022-11-20T06:26:10.130Z,97854.97
2022-11-20T06:28:36.900Z,97855.91
2022-11-20T06:31:05.638Z,97856.09
2022-11-20T06:33:32.369Z,97853.38
2022-11-20T06:36:03.441Z,97844.00
2022-11-20T06:38:32.352Z,97855.75
2022-11-20T06:40:58.742Z,97855.22
2022-11-20T06:43:25.436Z,97850.69
2022-11-20T06:45:55.540Z,97846.81
2022-11-20T06:48:22.446Z,97853.28
2022-11-20T06:50:48.836Z,97846.81
2022-11-20T06:53:15.270Z,97853.59
2022-11-20T06:55:46.048Z,97848.66
2022-11-20T06:58:13.555Z,97845.13
2022-11-20T07:00:40.392Z,97840.75
2022-11-20T07:03:09.669Z,97842.28
2022-11-20T07:05:36.651Z,97837.38
2022-11-20T07:08:04.079Z,97848.28
2022-11-20T07:10:30.514Z,97833.41
2022-11-20T07:12:56.953Z,97828.97
2022-11-20T07:15:25.234Z,97835.66
2022-11-20T07:17:51.686Z,97834.75
2022-11-20T07:20:18.178Z,97833.78
2022-11-20T07:22:44.716Z,97832.53
2022-11-20T07:25:11.505Z,97835.88
2022-11-20T07:27:38.000Z,97832.97
2022-11-20T07:30:05.278Z,97825.78
2022-11-20T07:32:32.003Z,97836.50
2022-11-20T07:34:58.462Z,97835.09
2022-11-20T07:37:24.855Z,97829.63
2022-11-20T07:39:51.279Z,97830.16
2022-11-20T07:42:17.659Z,97825.00
2022-11-20T07:44:44.036Z,97818.50
2022-11-20T07:47:10.444Z,97810.56
2022-11-20T07:49:36.841Z,97822.50
2022-11-20T07:52:05.011Z,97810.97
2022-11-20T07:54:31.861Z,97810.69
2022-11-20T07:56:58.286Z,97805.75
2022-11-20T07:59:24.648Z,97806.88
2022-11-20T08:01:51.060Z,97813.06
2022-11-20T08:04:17.547Z,97805.16
2022-11-20T08:06:43.995Z,97813.72
2022-11-20T08:09:10.605Z,97809.41
2022-11-20T08:11:55.646Z,97803.47
2022-11-20T08:14:22.038Z,97799.13
2022-11-20T08:16:50.150Z,97797.50
2022-11-20T08:19:18.486Z,97790.56
2022-11-20T08:21:45.501Z,97804.63
2022-11-20T08:24:12.639Z,97808.25
2022-11-20T08:26:40.526Z,97805.09
2022-11-20T08:29:07.213Z,97802.19
2022-11-20T08:31:34.355Z,97795.56
2022-11-20T08:34:00.742Z,97804.63
2022-11-20T08:36:27.141Z,97795.72
2022-11-20T08:38:56.053Z,97798.69
2022-11-20T08:41:29.156Z,97803.41
2022-11-20T08:44:01.051Z,97799.13
2022-11-20T08:46:31.895Z,97793.00
2022-11-20T08:48:59.446Z,97794.22
2022-11-20T08:51:25.878Z,97795.41
2022-11-20T08:53:52.382Z,97791.41
2022-11-20T08:56:18.831Z,97790.38
2022-11-20T08:59:15.991Z,97788.38
2022-11-20T09:01:31.849Z,97791.22
2022-11-20T09:03:58.659Z,97784.75
2022-11-20T09:06:25.079Z,97785.84
2022-11-20T09:08:55.457Z,97786.59
2022-11-20T09:11:22.243Z,97778.50
2022-11-20T09:13:48.637Z,97771.72
2022-11-20T09:16:15.146Z,97779.63
2022-11-20T09:18:41.554Z,97776.75
2022-11-20T09:21:13.170Z,97773.44
2022-11-20T09:23:40.407Z,97769.22
2022-11-20T09:26:09.689Z,97762.22
2022-11-20T09:28:36.049Z,97772.03
2022-11-20T09:31:06.960Z,97776.13
2022-11-20T09:33:33.378Z,97767.59
2022-11-20T09:35:59.777Z,97769.25
2022-11-20T09:38:26.906Z,97773.81
2022-11-20T09:40:59.192Z,97778.97
2022-11-20T09:43:37.063Z,97779.22
2022-11-20T09:46:27.386Z,97765.88
2022-11-20T09:48:59.673Z,97759.00
2022-11-20T09:51:45.745Z,97757.16
2022-11-20T09:54:20.800Z,97759.00
2022-11-20T09:56:54.651Z,97756.16
2022-11-20T09:59:36.613Z,97748.91
2022-11-20T10:02:15.842Z,97751.50
2022-11-20T10:04:48.756Z,97746.69
2022-11-20T10:07:32.643Z,97746.25
2022-11-20T10:10:00.426Z,97747.66
2022-11-20T10:12:41.226Z,97741.81
2022-11-20T10:15:25.600Z,97738.56
2022-11-20T10:18:25.986Z,97736.06
2022-11-20T10:21:14.360Z,97736.75
2022-11-20T10:23:59.531Z,97742.03
2022-11-20T10:26:39.628Z,97730.97
2022-11-20T10:29:12.076Z,97737.75
2022-11-20T10:31:41.808Z,97736.75
2022-11-20T10:34:23.489Z,97741.03
2022-11-20T10:36:59.325Z,97735.03
2022-11-20T10:39:34.908Z,97733.78
2022-11-20T10:42:01.911Z,97725.19
2022-11-20T10:44:50.246Z,97727.69
2022-11-20T10:47:20.196Z,97718.63
2022-11-20T10:49:54.046Z,97706.69
2022-11-20T10:52:38.160Z,97700.91
2022-11-20T10:55:17.048Z,97705.97
2022-11-20T10:57:56.170Z,97702.41
2022-11-20T11:00:22.634Z,97705.50
2022-11-20T11:02:51.267Z,97704.88
2022-11-20T11:05:38.110Z,97705.66
2022-11-20T11:08:10.909Z,97704.38
2022-11-20T11:10:45.039Z,97704.19
2022-11-20T11:13:27.250Z,97712.50
2022-11-20T11:15:54.515Z,97699.41
2022-11-20T11:18:27.357Z,97697.22
2022-11-20T11:20:56.052Z,97699.75
2022-11-20T11:23:38.509Z,97691.53
2022-11-20T11:26:08.342Z,97690.03
2022-11-20T11:28:35.410Z,97688.66
2022-11-20T11:31:01.815Z,97683.25
2022-11-20T11:33:30.215Z,97684.91
2022-11-20T11:36:00.360Z,97674.38
2022-11-20T11:38:35.213Z,97671.78
2022-11-20T11:41:02.506Z,97670.44
2022-11-20T11:43:52.927Z,97657.06
2022-11-20T11:46:22.021Z,97652.75
2022-11-20T11:49:10.189Z,97650.38
2022-11-20T11:52:01.959Z,97642.50
2022-11-20T11:54:47.587Z,97645.03
2022-11-20T11:57:25.927Z,97638.72
2022-11-20T12:00:07.590Z,97633.47
2022-11-20T12:02:54.599Z,97628.22
2022-11-20T12:05:41.233Z,97640.00
2022-11-20T12:08:52.853Z,97626.19
2022-11-20T12:11:38.655Z,97625.91
2022-11-20T12:14:16.815Z,97627.00
2022-11-20T12:16:43.432Z,97620.38
2022-11-20T12:19:14.713Z,97627.69
2022-11-20T12:21:59.815Z,97616.38
2022-11-20T12:24:27.745Z,97620.78
2022-11-20T12:27:17.842Z,97614.22
2022-11-20T12:29:47.911Z,97615.84
2022-11-20T12:32:36.742Z,97620.59
2022-11-20T12:35:30.625Z,97622.88
2022-11-20T12:38:30.698Z,97613.59
2022-11-20T12:41:35.710Z,97616.59
2022-11-20T12:44:41.061Z,97612.34
2022-11-20T12:47:48.805Z,97618.41
2022-11-20T12:50:42.929Z,97625.00
2022-11-20T12:53:44.008Z,97618.66
2022-11-20T12:56:27.425Z,97622.38
2022-11-20T12:59:21.765Z,97617.28
2022-11-20T13:01:59.667Z,97624.59
2022-11-20T13:04:38.003Z,97625.34
2022-11-20T13:07:08.830Z,97623.91
2022-11-20T13:09:46.963Z,97625.72
2022-11-20T13:12:46.835Z,97622.47
2022-11-20T13:15:38.226Z,97616.78
2022-11-20T13:18:09.154Z,97614.66
2022-11-20T13:20:37.112Z,97616.75
2022-11-20T13:23:03.583Z,97616.66
2022-11-20T13:25:38.175Z,97617.50
2022-11-20T13:28:26.292Z,97614.66
2022-11-20T13:30:55.176Z,97623.66
2022-11-20T13:33:36.076Z,97612.69
2022-11-20T13:36:08.542Z,97617.28
2022-11-20T13:38:45.067Z,97603.53
2022-11-20T13:41:29.737Z,97606.13
2022-11-20T13:44:10.103Z,97600.19
2022-11-20T13:46:47.411Z,97598.28
2022-11-20T13:49:30.394Z,97596.13
2022-11-20T13:52:23.488Z,97590.69
2022-11-20T13:55:08.523Z,97593.66
2022-11-20T13:57:59.900Z,97601.97
2022-11-20T14:00:27.186Z,97595.22
2022-11-20T14:03:08.521Z,97597.81
2022-11-20T14:05:41.425Z,97603.09
2022-11-20T14:08:18.495Z,97602.06
2022-11-20T14:10:44.869Z,97598.94
2022-11-20T14:13:18.344Z,97605.53
2022-11-20T14:15:45.396Z,97599.84
2022-11-20T14:18:22.824Z,97608.00
2022-11-20T14:20:49.657Z,97603.75
2022-11-20T14:23:30.072Z,97600.22
2022-11-20T14:25:57.985Z,97600.59
2022-11-20T14:28:30.016Z,97597.69
2022-11-20T14:30:58.613Z,97596.66
2022-11-20T14:33:27.504Z,97605.09
2022-11-20T14:35:57.119Z,97604.06
2022-11-20T14:38:27.432Z,97603.78
2022-11-20T14:40:53.941Z,97603.78
2022-11-20T14:43:28.791Z,97605.06
2022-11-20T14:46:07.973Z,97611.81
2022-11-20T14:48:45.453Z,97609.25
2022-11-20T14:51:12.614Z,97613.56
2022-11-20T14:53:39.015Z,97606.56
2022-11-20T14:56:05.640Z,97609.59
2022-11-20T14:58:34.611Z,97600.81
2022-11-20T15:01:05.778Z,97601.38
2022-11-20T15:03:39.206Z,97591.56
2022-11-20T15:06:07.430Z,97593.41
2022-11-20T15:08:34.296Z,97590.81
2022-11-20T15:11:00.908Z,97587.19
2022-11-20T15:13:39.246Z,97576.13
2022-11-20T15:16:18.257Z,97584.25
2022-11-20T15:18:44.883Z,97582.59
2022-11-20T15:21:13.784Z,97578.59
2022-11-20T15:23:40.393Z,97579.13
2022-11-20T15:26:08.318Z,97585.88
2022-11-20T15:28:38.119Z,97589.97
2022-11-20T15:31:05.223Z,97585.38
2022-11-20T15:33:32.669Z,97580.72
2022-11-20T15:35:59.376Z,97585.75
2022-11-20T15:38:25.827Z,97589.06
2022-11-20T15:40:52.302Z,97583.88
2022-11-20T15:43:18.817Z,97581.59
2022-11-20T15:45:51.359Z,97578.69
2022-11-20T15:48:20.015Z,97581.97
2022-11-20T15:51:01.406Z,97587.03
2022-11-20T15:53:28.174Z,97584.81
2022-11-20T15:55:54.728Z,97592.34
2022-11-20T15:58:21.223Z,97595.94
2022-11-20T16:00:47.593Z,97593.25
2022-11-20T16:03:15.498Z,97587.50
2022-11-20T16:05:41.912Z,97584.78
2022-11-20T16:08:11.663Z,97592.81
2022-11-20T16:10:39.064Z,97597.81
2022-11-20T16:13:24.983Z,97594.38
2022-11-20T16:15:56.446Z,97596.88
2022-11-20T16:18:23.172Z,97607.41
2022-11-20T16:20:54.084Z,97596.19
2022-11-20T16:23:21.779Z,97609.47
2022-11-20T16:25:48.716Z,97604.28
2022-11-20T16:28:18.849Z,97606.84
2022-11-20T16:30:45.967Z,97603.13
2022-11-20T16:33:14.854Z,97603.38
2022-11-20T16:35:41.488Z,97601.41
2022-11-20T16:38:08.232Z,97607.19
2022-11-20T16:40:35.306Z,97609.28
2022-11-20T16:43:13.882Z,97607.78
2022-11-20T16:45:44.585Z,97605.50
2022-11-20T16:48:15.680Z,97605.03
2022-11-20T16:50:53.177Z,97605.59
2022-11-20T16:53:20.208Z,97613.06
2022-11-20T16:55:46.653Z,97609.34
2022-11-20T16:58:13.407Z,97617.31
2022-11-20T17:00:40.749Z,97603.88
2022-11-20T17:03:07.749Z,97609.41
2022-11-20T17:05:34.976Z,97610.66
2022-11-20T17:08:01.879Z,97606.19
2022-11-20T17:10:28.291Z,97618.44
2022-11-20T17:12:54.695Z,97601.31
2022-11-20T17:15:21.129Z,97611.34
2022-11-20T17:17:47.909Z,97604.16
2022-11-20T17:20:14.343Z,97602.19
2022-11-20T17:22:40.702Z,97600.44
2022-11-20T17:25:07.401Z,97612.19
2022-11-20T17:27:33.810Z,97609.00
2022-11-20T17:30:00.266Z,97604.28
2022-11-20T17:32:26.839Z,97607.03
2022-11-20T17:34:53.261Z,97597.59
2022-11-20T17:37:19.691Z,97594.59
2022-11-20T17:39:46.812Z,97601.88
2022-11-20T17:42:29.555Z,97597.94
2022-11-20T17:44:58.631Z,97588.00
2022-11-20T17:47:25.892Z,97592.22
2022-11-20T17:49:53.518Z,97589.28
2022-11-20T17:52:20.020Z,97588.03
2022-11-20T17:54:46.384Z,97592.03
2022-11-20T17:57:31.542Z,97592.50
2022-11-20T17:59:58.000Z,97592.56
2022-11-20T18:02:24.996Z,97591.56
2022-11-20T18:04:51.375Z,97592.06
2022-11-20T18:07:17.853Z,97584.91
2022-11-20T18:09:44.293Z,97588.91
2022-11-20T18:12:10.753Z,97577.72
2022-11-20T18:14:37.175Z,97576.53
2022-11-20T18:17:06.791Z,97577.00
2022-11-20T18:19:40.429Z,97576.00
2022-11-20T18:22:12.888Z,97576.81
2022-11-20T18:24:39.511Z,97573.56
2022-11-20T18:27:07.685Z,97571.81
2022-11-20T18:29:34.242Z,97574.56
2022-11-20T18:32:01.359Z,97571.09
2022-11-20T18:34:28.165Z,97568.34
2022-11-20T18:36:54.526Z,97566.66
2022-11-20T18:39:21.028Z,97561.44
2022-11-20T18:42:06.186Z,97562.72
2022-11-20T18:44:51.542Z,97571.94
2022-11-20T18:47:23.708Z,97572.44
2022-11-20T18:49:52.721Z,97561.97
2022-11-20T18:52:24.028Z,97567.91
2022-11-20T18:54:51.197Z,97563.22
2022-11-20T18:57:19.002Z,97563.25
2022-11-20T18:59:45.970Z,97569.97
2022-11-20T19:02:17.705Z,97571.47
2022-11-20T19:04:44.184Z,97568.97
2022-11-20T19:07:14.320Z,97565.22
2022-11-20T19:09:42.855Z,97566.00
2022-11-20T19:12:10.865Z,97572.22
2022-11-20T19:14:37.419Z,97563.28
2022-11-20T19:17:04.636Z,97558.09
2022-11-20T19:19:31.088Z,97558.31
2022-11-20T19:21:57.515Z,97559.84
2022-11-20T19:24:24.311Z,97551.34
2022-11-20T19:26:50.824Z,97560.06
2022-11-20T19:29:17.607Z,97557.84
2022-11-20T19:31:45.533Z,97561.09
2022-11-20T19:34:12.058Z,97559.59
2022-11-20T19:36:44.570Z,97557.13
2022-11-20T19:39:11.839Z,97548.16
2022-11-20T19:41:40.241Z,97544.69
2022-11-20T19:44:17.092Z,97552.63
2022-11-20T19:46:44.431Z,97541.94
2022-11-20T19:49:12.937Z,97538.97
2022-11-20T19:51:44.621Z,97542.19
2022-11-20T19:54:11.022Z,97527.31
2022-11-20T19:56:37.420Z,97531.03
2022-11-20T19:59:03.814Z,97526.06
2022-11-20T20:01:31.088Z,97537.72
2022-11-20T20:04:05.093Z,97535.50
2022-11-20T20:06:33.941Z,97531.78
2022-11-20T20:09:05.446Z,97525.06
2022-11-20T20:11:33.382Z,97514.88
2022-11-20T20:14:01.548Z,97521.34
2022-11-20T20:16:28.816Z,97524.06
2022-11-20T20:18:56.703Z,97521.09
2022-11-20T20:21:23.412Z,97532.00
2022-11-20T20:23:54.927Z,97522.06
2022-11-20T20:26:23.376Z,97509.44
2022-11-20T20:28:50.556Z,97509.66
2022-11-20T20:31:19.624Z,97511.41
2022-11-20T20:33:46.373Z,97513.13
2022-11-20T20:36:14.771Z,97513.63
2022-11-20T20:38:42.371Z,97519.84
2022-11-20T20:41:08.641Z,97510.44
2022-11-20T20:43:56.443Z,97519.09
2022-11-20T20:46:23.422Z,97506.19
2022-11-20T20:48:54.152Z,97491.84
2022-11-20T20:51:22.232Z,97496.50
2022-11-20T20:53:48.896Z,97503.94
2022-11-20T20:56:15.662Z,97505.22
2022-11-20T20:58:42.084Z,97506.22
2022-11-20T21:01:11.938Z,97483.88
2022-11-20T21:03:38.740Z,97479.41
2022-11-20T21:06:06.675Z,97484.13
2022-11-20T21:08:33.104Z,97481.38
2022-11-20T21:11:08.254Z,97468.97
2022-11-20T21:13:35.494Z,97469.50
2022-11-20T21:16:02.675Z,97468.25
2022-11-20T21:18:29.287Z,97457.78
2022-11-20T21:21:14.251Z,97456.78
2022-11-20T21:23:42.050Z,97450.38
2022-11-20T21:26:09.248Z,97453.81
2022-11-20T21:28:37.433Z,97446.63
2022-11-20T21:31:04.955Z,97430.47
2022-11-20T21:33:58.087Z,97432.72
2022-11-20T21:36:26.619Z,97422.03
2022-11-20T21:38:56.921Z,97419.06
2022-11-20T21:41:24.875Z,97417.06
2022-11-20T21:44:23.485Z,97417.06
2022-11-20T21:46:40.760Z,97404.09
2022-11-20T21:49:07.509Z,97405.09
2022-11-20T21:51:34.061Z,97398.28
2022-11-20T21:54:00.579Z,97386.06
2022-11-20T21:56:27.637Z,97379.06
2022-11-20T21:58:54.804Z,97379.78
2022-11-20T22:01:27.612Z,97375.00
2022-11-20T22:03:57.142Z,97372.53
2022-11-20T22:06:25.938Z,97369.13
2022-11-20T22:08:52.724Z,97373.59
2022-11-20T22:11:21.419Z,97373.44
2022-11-20T22:14:07.022Z,97364.34
2022-11-20T22:16:36.465Z,97362.66
2022-11-20T22:19:03.517Z,97360.16
2022-11-20T22:21:31.539Z,97353.97
2022-11-20T22:23:58.585Z,97354.72
2022-11-20T22:26:30.761Z,97348.91
2022-11-20T22:28:59.164Z,97348.63
2022-11-20T22:31:28.088Z,97341.19
2022-11-20T22:33:54.932Z,97348.50
2022-11-20T22:36:23.790Z,97339.09
2022-11-20T22:38:50.663Z,97337.66
2022-11-20T22:41:24.953Z,97323.41
2022-11-20T22:43:58.261Z,97321.13
2022-11-20T22:46:26.219Z,97322.91
2022-11-20T22:48:54.428Z,97326.69
2022-11-20T22:51:23.755Z,97320.06
2022-11-20T22:53:50.956Z,97311.72
2022-11-20T22:56:18.156Z,97321.88
2022-11-20T22:58:46.521Z,97318.53
2022-11-20T23:01:14.360Z,97312.63
2022-11-20T23:03:42.724Z,97310.03
2022-11-20T23:06:10.211Z,97301.47
2022-11-20T23:08:37.228Z,97308.50
2022-11-20T23:11:06.348Z,97303.44
2022-11-20T23:13:33.123Z,97305.94
2022-11-20T23:16:08.287Z,97303.03
2022-11-20T23:18:35.140Z,97295.84
2022-11-20T23:21:10.013Z,97286.78
2022-11-20T23:23:36.424Z,97282.69
2022-11-20T23:26:11.209Z,97275.03
2022-11-20T23:28:38.571Z,97278.28
2022-11-20T23:31:06.132Z,97274.31
2022-11-20T23:33:35.976Z,97276.53
2022-11-20T23:36:02.502Z,97277.06
2022-11-20T23:38:28.889Z,97273.69
2022-11-20T23:40:55.288Z,97268.53
2022-11-20T23:43:22.680Z,97258.19
2022-11-20T23:45:51.563Z,97261.84
2022-11-20T23:48:19.357Z,97249.78
2022-11-20T23:50:46.023Z,97244.72
2022-11-20T23:53:14.362Z,97238.75
2022-11-20T23:55:46.135Z,97236.00
2022-11-20T23:58:12.999Z,97239.16
